Terminal Aerodrome Forecast
Issued by NWS

Home | Current Version | Previous Version | Text Only | Print | Product List | Glossary On
Versions: 1 2 3 4 5 6 7 8 9 10 11 12 13 14 15 16 17 18 19 20 21 22 23 24
000
FTUS42 KGSP 072104 AAC
TAFAND
TAF AMD
KAND 072104Z 0721/0818 18006KT P6SM BKN015
     FM080300 00000KT P6SM BKN015
     FM080700 23003KT 4SM BR SCT030 BKN120
     FM081300 29007KT P6SM OVC090=

USA.gov is the U.S. government's official web portal to all federal, state and local government web resources and services.